Time;durP1;ratioP1;P1;durP2;ratioP2;P2;SDS_P1;SDS_P2;PMS_P1;PMS_P2;Temp;Humidity;BMP_temperature;BMP_pressure;BME280_temperature;BME280_humidity;BME280_pressure;Samples;Min_cycle;Max_cycle;Signal;HPM_P1;HPM_P2
2023/06/28 00:56:32;;;;;;;7.15;3.33;;;;;;;23.94;53.72;99247.19;3164128;28;20962;-67
2023/06/28 00:58:05;;;;;;;6.07;3.53;;;;;;;23.98;53.52;99248.50;3157237;28;20051;-69
2023/06/28 00:59:37;;;;;;;;;;;;;;;23.85;53.62;99253.53;3169603;28;20516;-69
2023/06/28 01:01:10;;;;;;;6.82;3.35;;;;;;;23.91;53.45;99242.22;3161599;28;20313;-68
2023/06/28 01:02:44;;;;;;;6.43;3.42;;;;;;;23.97;53.25;99236.22;3167888;28;20047;-70
2023/06/28 01:04:16;;;;;;;6.90;3.20;;;;;;;24.01;53.55;99239.38;3166489;28;20048;-68
2023/06/28 01:05:51;;;;;;;5.75;3.80;;;;;;;24.01;53.37;99242.03;3172116;28;20453;-68
2023/06/28 01:07:23;;;;;;;5.10;3.45;;;;;;;24.00;53.43;99249.19;3161991;28;20048;-68
2023/06/28 01:08:55;;;;;;;6.13;3.95;;;;;;;24.01;52.88;99242.03;3172359;28;20048;-68
2023/06/28 01:10:26;;;;;;;6.50;3.30;;;;;;;24.02;52.92;99243.72;3172011;28;20520;-68
2023/06/28 01:11:59;;;;;;;6.65;3.45;;;;;;;24.00;52.79;99241.19;3172294;28;20050;-68
2023/06/28 01:13:33;;;;;;;4.90;3.55;;;;;;;23.97;52.32;99236.22;3171990;28;20457;-68
2023/06/28 01:15:06;;;;;;;4.78;3.00;;;;;;;24.00;52.74;99243.03;3172301;28;20540;-68
2023/06/28 01:16:39;;;;;;;5.20;3.67;;;;;;;23.98;52.88;99242.38;3172260;28;20055;-69
2023/06/28 01:18:11;;;;;;;;;;;;;;;23.79;52.93;99246.22;3172538;28;20043;-69
2023/06/28 01:19:43;;;;;;;4.10;3.08;;;;;;;23.82;53.11;99246.72;3171925;28;19924;-68
2023/06/28 01:21:17;;;;;;;5.63;3.13;;;;;;;23.71;52.88;99231.09;3170748;28;20524;-68
2023/06/28 01:22:55;;;;;;;5.50;3.45;;;;;;;23.86;53.13;99246.38;3159373;28;20455;-68
2023/06/28 01:24:26;;;;;;;6.60;3.78;;;;;;;23.83;53.02;99256.34;3169160;28;20059;-70
2023/06/28 01:26:03;;;;;;;4.78;3.47;;;;;;;23.86;53.02;99255.19;3171883;28;20055;-68
2023/06/28 01:27:35;;;;;;;5.68;3.50;;;;;;;23.88;52.77;99250.53;3172112;28;20055;-69
2023/06/28 01:29:08;;;;;;;9.90;3.70;;;;;;;23.89;53.00;99251.34;3171783;28;20056;-69
2023/06/28 01:30:39;;;;;;;6.50;3.80;;;;;;;23.84;53.24;99254.53;3172071;28;20051;-69
2023/06/28 01:32:11;;;;;;;6.55;3.53;;;;;;;23.82;53.30;99252.03;3171929;28;20055;-69
2023/06/28 01:33:45;;;;;;;6.78;3.97;;;;;;;23.82;53.13;99262.66;3172265;28;20054;-69
2023/06/28 01:35:17;;;;;;;5.53;3.25;;;;;;;23.82;53.51;99262.66;3171625;28;20055;-69
2023/06/28 01:36:50;;;;;;;7.47;3.70;;;;;;;23.83;53.63;99261.66;3165578;28;20445;-68
2023/06/28 01:38:24;;;;;;;4.45;3.20;;;;;;;23.82;53.66;99265.31;3169479;28;20134;-68
2023/06/28 01:39:54;;;;;;;10.38;4.03;;;;;;;23.82;53.59;99265.31;3165021;28;20078;-68
2023/06/28 01:41:27;;;;;;;8.13;3.35;;;;;;;23.84;53.58;99259.84;3167708;28;20051;-68
2023/06/28 01:42:59;;;;;;;7.75;3.58;;;;;;;23.85;53.22;99272.13;3171622;28;20047;-68
2023/06/28 01:44:33;;;;;;;4.35;3.38;;;;;;;23.86;53.52;99268.47;3171680;28;20535;-68
2023/06/28 01:46:05;;;;;;;6.72;3.30;;;;;;;23.86;53.34;99270.31;3172241;28;20081;-68
2023/06/28 01:47:37;;;;;;;5.82;3.70;;;;;;;23.86;53.74;99272.97;3164060;28;20047;-68
2023/06/28 01:49:09;;;;;;;6.15;3.53;;;;;;;23.82;53.69;99270.66;3169877;28;20055;-68
2023/06/28 01:50:41;;;;;;;5.53;3.78;;;;;;;23.82;53.45;99267.97;3166407;28;20051;-68
2023/06/28 01:52:13;;;;;;;5.97;4.05;;;;;;;23.83;53.56;99266.16;3165424;28;20498;-68
2023/06/28 01:53:47;;;;;;;16.80;4.85;;;;;;;23.78;53.81;99268.47;3171298;28;20059;-68
2023/06/28 01:55:19;;;;;;;6.47;3.85;;;;;;;23.82;53.62;99275.13;3171577;28;20063;-68
2023/06/28 01:56:51;;;;;;;8.18;3.90;;;;;;;23.82;53.86;99269.81;3175885;27;20481;-69
2023/06/28 01:58:23;;;;;;;9.73;4.20;;;;;;;23.81;53.94;99270.78;3184073;27;20047;-69
2023/06/28 01:59:55;;;;;;;8.48;4.28;;;;;;;23.80;53.93;99277.94;3184507;27;20293;-68
2023/06/28 02:01:28;;;;;;;8.43;4.75;;;;;;;23.79;53.88;99272.81;3173818;27;20079;-68
2023/06/28 02:02:59;;;;;;;9.43;4.03;;;;;;;23.77;54.23;99275.63;3184119;27;20107;-69
2023/06/28 02:04:31;;;;;;;7.43;4.38;;;;;;;23.76;54.01;99273.97;3177784;27;20305;-68
2023/06/28 02:06:03;;;;;;;6.88;4.57;;;;;;;23.78;54.11;99282.63;3182134;27;20051;-68
2023/06/28 02:07:35;;;;;;;7.57;4.45;;;;;;;23.76;54.60;99276.63;3181337;27;20050;-69
2023/06/28 02:09:08;;;;;;;10.95;4.88;;;;;;;23.77;54.19;99274.78;3184282;27;20047;-69
2023/06/28 02:10:40;;;;;;;11.75;4.95;;;;;;;23.73;54.77;99278.78;3184551;27;20047;-68
2023/06/28 02:12:12;;;;;;;10.32;4.38;;;;;;;23.70;54.64;99274.63;3183981;27;20047;-69
2023/06/28 02:13:43;;;;;;;8.85;4.68;;;;;;;23.69;55.23;99275.59;3183965;27;20048;-70
2023/06/28 02:15:15;;;;;;;8.05;4.80;;;;;;;23.65;54.98;99271.59;3184133;27;20179;-69
2023/06/28 02:16:46;;;;;;;11.13;4.80;;;;;;;23.63;55.50;99276.25;3180658;27;20047;-70
2023/06/28 02:18:24;;;;;;;7.80;4.53;;;;;;;23.60;55.54;99276.59;3175510;27;20492;-70
2023/06/28 02:19:56;;;;;;;6.70;4.57;;;;;;;23.53;55.42;99265.78;3184271;27;20515;-69
2023/06/28 02:21:28;;;;;;;10.95;5.00;;;;;;;23.48;56.04;99269.94;3180962;27;20051;-69
2023/06/28 02:23:00;;;;;;;8.27;4.53;;;;;;;23.40;56.26;99278.75;3174030;27;20058;-69
2023/06/28 02:24:33;;;;;;;7.78;5.10;;;;;;;23.33;56.23;99272.41;3184074;27;20047;-69
2023/06/28 02:26:05;;;;;;;7.72;5.00;;;;;;;23.22;56.27;99276.25;3183924;27;20514;-69
2023/06/28 02:27:37;;;;;;;6.55;4.32;;;;;;;23.21;56.39;99282.53;3183984;27;20063;-69
2023/06/28 02:29:08;;;;;;;9.13;5.28;;;;;;;23.21;56.46;99279.03;3184356;27;20055;-69
2023/06/28 02:30:39;;;;;;;8.75;4.80;;;;;;;23.19;56.68;99275.69;3184109;27;20603;-69
2023/06/28 02:32:12;;;;;;;11.95;4.50;;;;;;;23.16;56.97;99277.72;3184297;27;20152;-69
2023/06/28 02:33:43;;;;;;;10.77;4.93;;;;;;;23.11;56.57;99271.22;3183769;27;20471;-69
2023/06/28 02:35:14;;;;;;;7.95;4.90;;;;;;;23.12;56.89;99280.84;3183961;27;20051;-69
2023/06/28 02:36:46;;;;;;;7.32;4.75;;;;;;;23.08;56.82;99282.19;3175230;27;20530;-68
2023/06/28 02:38:18;;;;;;;7.75;5.25;;;;;;;23.04;56.82;99278.16;3175642;27;20047;-68
2023/06/28 02:39:50;;;;;;;6.65;4.70;;;;;;;23.05;57.19;99272.69;3172261;27;20106;-68
2023/06/28 02:41:22;;;;;;;7.85;4.45;;;;;;;23.07;56.97;99273.38;3174184;27;20883;-68
2023/06/28 02:42:54;;;;;;;10.40;5.18;;;;;;;23.09;56.99;99271.38;3177891;27;20874;-68
2023/06/28 02:44:26;;;;;;;9.95;5.28;;;;;;;23.14;56.97;99268.25;3173004;27;20062;-68
2023/06/28 02:45:58;;;;;;;7.03;5.00;;;;;;;23.13;56.47;99275.38;3178737;27;20058;-68
2023/06/28 02:47:30;;;;;;;13.70;5.05;;;;;;;23.08;57.06;99264.41;3175623;27;20047;-68
2023/06/28 02:49:02;;;;;;;8.23;5.18;;;;;;;23.03;56.71;99266.72;3173511;27;20096;-68
2023/06/28 02:50:34;;;;;;;12.85;5.32;;;;;;;23.02;56.86;99273.03;3174004;27;20051;-68
2023/06/28 02:52:05;;;;;;;8.10;4.85;;;;;;;22.98;57.39;99284.13;3173388;27;20082;-69
2023/06/28 02:53:37;;;;;;;7.53;4.63;;;;;;;22.93;57.51;99273.97;3178417;27;20888;-69
2023/06/28 02:55:10;;;;;;;11.25;5.18;;;;;;;22.93;57.35;99273.97;3178309;27;20055;-69
2023/06/28 02:56:42;;;;;;;;;;;;;;;22.69;57.47;99280.84;3179008;27;20108;-70
2023/06/28 02:58:14;;;;;;;9.65;4.80;;;;;;;22.78;57.88;99281.72;3178171;27;19935;-69
2023/06/28 02:59:45;;;;;;;8.80;4.75;;;;;;;22.83;57.66;99275.91;3178457;27;20047;-70
2023/06/28 03:01:17;;;;;;;7.82;5.13;;;;;;;22.87;57.29;99272.78;3172583;27;20086;-69
2023/06/28 03:02:47;;;;;;;9.77;4.57;;;;;;;22.88;57.61;99274.44;3178551;27;20047;-69
2023/06/28 03:04:19;;;;;;;8.52;4.78;;;;;;;22.90;57.02;99276.94;3173809;27;20540;-68
2023/06/28 03:05:51;;;;;;;10.75;5.43;;;;;;;22.91;57.18;99276.78;3176276;27;20870;-69
2023/06/28 03:07:23;;;;;;;10.43;5.07;;;;;;;22.92;57.29;99275.78;3177097;27;20051;-71
2023/06/28 03:08:54;;;;;;;7.93;4.80;;;;;;;22.94;57.42;99276.47;3177915;27;20685;-70
2023/06/28 03:10:27;;;;;;;11.75;5.15;;;;;;;22.96;57.29;99275.50;3178377;27;20047;-70
2023/06/28 03:11:58;;;;;;;18.77;5.75;;;;;;;22.93;57.35;99274.78;3178389;27;20050;-70
2023/06/28 03:13:30;;;;;;;9.93;5.30;;;;;;;22.95;57.10;99274.66;3178457;27;20047;-70
2023/06/28 03:15:01;;;;;;;7.40;4.85;;;;;;;22.97;57.48;99280.63;3178285;27;20545;-70
2023/06/28 03:16:33;;;;;;;10.05;5.28;;;;;;;22.98;57.34;99287.59;3177857;27;20532;-70
2023/06/28 03:18:04;;;;;;;9.20;5.38;;;;;;;23.00;56.88;99290.94;3171580;27;20055;-71
2023/06/28 03:19:36;;;;;;;8.68;5.65;;;;;;;22.97;57.26;99298.41;3177931;27;20579;-71
2023/06/28 03:21:08;;;;;;;8.55;5.45;;;;;;;22.92;57.38;99288.22;3177488;27;21002;-72
2023/06/28 03:22:40;;;;;;;7.63;5.40;;;;;;;22.92;57.16;99289.06;3169576;27;20066;-71
2023/06/28 03:24:12;;;;;;;12.98;5.38;;;;;;;22.94;57.43;99291.56;3177939;27;20043;-71
2023/06/28 03:25:46;;;;;;;7.35;4.85;;;;;;;22.96;57.26;99294.91;3178108;27;20078;-70
2023/06/28 03:27:19;;;;;;;9.50;5.35;;;;;;;22.96;57.12;99292.25;3177270;27;20103;-69
2023/06/28 03:28:50;;;;;;;9.75;5.45;;;;;;;22.94;57.48;99297.72;3177514;27;20051;-70
2023/06/28 03:30:21;;;;;;;8.73;4.80;;;;;;;22.93;57.57;99300.53;3178055;27;20051;-70
2023/06/28 03:31:55;;;;;;;12.63;5.75;;;;;;;22.92;57.67;99299.69;3177866;27;20444;-70
2023/06/28 03:33:26;;;;;;;14.00;5.95;;;;;;;22.90;57.49;99306.97;3177761;27;20492;-70
2023/06/28 03:34:58;;;;;;;8.82;4.57;;;;;;;22.86;57.53;99302.13;3177867;27;20174;-68
2023/06/28 03:36:31;;;;;;;9.07;5.35;;;;;;;22.76;57.70;99290.81;3174444;27;20101;-73
2023/06/28 03:38:03;;;;;;;9.55;5.28;;;;;;;22.76;57.91;99307.59;3173067;27;20051;-72
2023/06/28 03:39:35;;;;;;;12.15;5.45;;;;;;;22.76;57.87;99301.44;3173375;27;20094;-72
2023/06/28 03:41:07;;;;;;;7.47;5.07;;;;;;;22.76;57.81;99296.97;3171744;27;20057;-72
2023/06/28 03:42:39;;;;;;;11.60;5.45;;;;;;;22.73;58.04;99305.25;3177668;27;20086;-72
2023/06/28 03:44:11;;;;;;;7.05;4.63;;;;;;;22.73;57.71;99299.94;3171823;27;20043;-74
2023/06/28 03:45:43;;;;;;;7.88;5.40;;;;;;;22.69;57.73;99295.94;3173801;27;20058;-72
2023/06/28 03:47:15;;;;;;;8.70;5.10;;;;;;;22.69;58.01;99293.28;3176835;27;20108;-74
2023/06/28 03:48:47;;;;;;;13.43;5.72;;;;;;;22.69;58.04;99303.91;3177838;27;20047;-71
2023/06/28 03:50:19;;;;;;;8.10;5.07;;;;;;;22.67;58.03;99297.91;3176192;27;20439;-71
2023/06/28 03:51:50;;;;;;;11.00;5.25;;;;;;;22.65;57.92;99294.59;3175637;27;20043;-71
2023/06/28 03:53:22;;;;;;;12.60;5.47;;;;;;;22.61;57.94;99296.72;3178009;27;20104;-71
2023/06/28 03:54:54;;;;;;;10.38;5.05;;;;;;;22.58;57.93;99294.41;3177979;27;20059;-70
2023/06/28 03:56:28;;;;;;;8.07;4.55;;;;;;;22.51;58.09;99298.69;3178022;27;20138;-73
2023/06/28 03:57:59;;;;;;;10.02;5.47;;;;;;;22.49;57.77;99300.66;3177843;27;20055;-68
2023/06/28 03:59:31;;;;;;;11.85;5.20;;;;;;;22.48;57.73;99299.81;3178239;27;20054;-68
2023/06/28 04:01:03;;;;;;;12.00;5.38;;;;;;;22.49;58.05;99301.47;3171002;27;20105;-67
2023/06/28 04:02:34;;;;;;;8.70;4.95;;;;;;;22.52;58.06;99307.47;3177820;27;20062;-71
2023/06/28 04:04:09;;;;;;;10.80;6.43;;;;;;;22.56;58.00;99308.81;3175295;27;20047;-70
2023/06/28 04:05:41;;;;;;;8.43;4.88;;;;;;;22.57;57.79;99315.78;3151625;28;20055;-71
2023/06/28 04:07:13;;;;;;;15.18;10.15;;;;;;;22.58;57.67;99314.81;3167317;27;20082;-70
2023/06/28 04:08:46;;;;;;;12.65;5.63;;;;;;;22.61;57.75;99314.47;3176823;27;20082;-72
2023/06/28 04:10:18;;;;;;;12.35;5.47;;;;;;;22.59;57.84;99309.31;3177875;27;20494;-71
2023/06/28 04:11:51;;;;;;;8.38;5.25;;;;;;;22.61;57.83;99309.19;3177715;27;20051;-72
2023/06/28 04:13:25;;;;;;;8.95;5.63;;;;;;;22.59;57.83;99306.66;3177134;27;20057;-67
2023/06/28 04:14:57;;;;;;;18.85;5.70;;;;;;;22.56;57.84;99306.16;3152384;28;20066;-69
2023/06/28 04:16:29;;;;;;;13.23;5.65;;;;;;;22.55;57.52;99294.72;3177961;27;20073;-69
2023/06/28 04:18:01;;;;;;;11.93;6.03;;;;;;;22.54;57.96;99300.16;3177227;27;20484;-69
2023/06/28 04:19:33;;;;;;;11.13;5.50;;;;;;;22.55;57.86;99299.19;3177487;27;20049;-69
2023/06/28 04:21:05;;;;;;;11.38;5.35;;;;;;;22.53;57.51;99301.16;3177402;27;20050;-69
2023/06/28 04:22:36;;;;;;;12.77;5.63;;;;;;;22.49;57.97;99293.53;3177487;27;20119;-69
2023/06/28 04:24:08;;;;;;;13.65;6.35;;;;;;;22.49;58.10;99293.53;3177646;27;20057;-69
2023/06/28 04:25:40;;;;;;;11.77;5.47;;;;;;;22.48;58.11;99299.00;3177369;27;20444;-70
2023/06/28 04:27:12;;;;;;;9.52;5.25;;;;;;;22.45;58.00;99299.28;3177429;27;20047;-71
2023/06/28 04:28:44;;;;;;;10.82;5.80;;;;;;;22.49;58.29;99298.81;3177675;27;20093;-69
2023/06/28 04:30:16;;;;;;;12.32;5.32;;;;;;;22.52;58.39;99305.66;3177519;27;20067;-69
2023/06/28 04:31:48;;;;;;;9.63;5.60;;;;;;;22.54;58.07;99298.38;3177712;27;20535;-68
2023/06/28 04:33:22;;;;;;;11.63;5.65;;;;;;;22.56;58.00;99303.50;3177377;28;20047;-68
2023/06/28 04:34:56;;;;;;;11.60;5.28;;;;;;;22.55;57.98;99301.84;3179062;28;20082;-70
2023/06/28 04:36:28;;;;;;;12.13;5.57;;;;;;;22.58;58.55;99312.97;3171884;28;20047;-67
2023/06/28 04:38:03;;;;;;;14.45;5.63;;;;;;;22.58;58.15;99310.31;3176848;28;20123;-67
2023/06/28 04:39:35;;;;;;;11.40;5.30;;;;;;;22.56;58.59;99306.16;3174020;27;20131;-68
2023/06/28 04:41:07;;;;;;;13.00;5.95;;;;;;;22.55;58.53;99307.16;3172574;27;20047;-67
2023/06/28 04:42:40;;;;;;;8.10;5.25;;;;;;;22.57;58.31;99310.47;3174785;27;20494;-69
2023/06/28 04:44:14;;;;;;;;;;;;;;;22.37;58.72;99316.00;3180669;27;20047;-71
2023/06/28 04:45:49;;;;;;;11.20;4.95;;;;;;;22.45;58.70;99312.56;3169280;27;19930;-69
2023/06/28 04:47:21;;;;;;;12.23;6.25;;;;;;;22.48;58.80;99321.06;3173161;27;20047;-68
2023/06/28 04:48:53;;;;;;;19.10;7.70;;;;;;;22.55;58.41;99323.91;3180068;27;20051;-68
2023/06/28 04:50:25;;;;;;;12.00;6.47;;;;;;;22.58;58.31;99318.28;3175033;27;20051;-70
2023/06/28 04:51:57;;;;;;;12.98;5.50;;;;;;;22.65;58.55;99321.94;3174506;27;20560;-71
2023/06/28 04:53:29;;;;;;;11.90;5.55;;;;;;;22.68;58.42;99318.16;3179820;27;20078;-76
2023/06/28 04:55:01;;;;;;;12.63;6.07;;;;;;;22.71;58.18;99318.66;3180229;27;20051;-71
2023/06/28 04:56:33;;;;;;;10.38;5.38;;;;;;;22.69;58.19;99310.06;3179735;27;20111;-75
2023/06/28 04:58:07;;;;;;;14.57;5.30;;;;;;;;;;3179867;27;20054;-74
2023/06/28 04:59:38;;;;;;;17.60;5.93;;;;;;;22.78;58.40;99313.56;3179722;27;20158;-71
2023/06/28 05:01:10;;;;;;;11.32;5.70;;;;;;;22.89;58.18;99317.75;3171707;27;20528;-74
2023/06/28 05:02:42;;;;;;;10.88;5.05;;;;;;;22.91;58.19;99319.25;3168554;27;20051;-72
2023/06/28 05:04:14;;;;;;;15.60;5.18;;;;;;;22.96;57.99;99323.31;3173987;27;20051;-72
2023/06/28 05:05:46;;;;;;;10.32;6.00;;;;;;;23.02;57.47;99312.03;3177776;27;20047;-72
2023/06/28 05:07:18;;;;;;;11.32;5.28;;;;;;;23.04;57.96;99323.31;3165553;27;20048;-72
2023/06/28 05:08:50;;;;;;;8.98;5.70;;;;;;;23.09;57.92;99321.84;3173011;27;20451;-72
2023/06/28 05:10:23;;;;;;;11.93;6.28;;;;;;;23.13;57.44;99317.03;3180023;27;20485;-73
2023/06/28 05:11:58;;;;;;;8.30;5.93;;;;;;;23.12;57.93;99313.53;3179864;27;20236;-73
2023/06/28 05:13:35;;;;;;;12.35;6.65;;;;;;;23.24;57.71;99323.88;3179884;27;20436;-73
2023/06/28 05:15:08;;;;;;;33.78;21.67;;;;;;;23.29;57.46;99319.75;3173113;27;20051;-74
2023/06/28 05:16:40;;;;;;;11.27;6.18;;;;;;;23.34;57.49;99320.09;3173615;27;20141;-73
2023/06/28 05:18:12;;;;;;;13.13;6.13;;;;;;;23.39;57.20;99317.75;3173490;27;20116;-73
2023/06/28 05:19:44;;;;;;;14.27;5.68;;;;;;;23.43;57.30;99317.47;3177631;27;20087;-73
2023/06/28 05:21:15;;;;;;;17.10;5.43;;;;;;;23.46;57.07;99317.94;3177153;27;20050;-72
2023/06/28 05:22:49;;;;;;;16.70;6.00;;;;;;;23.48;56.71;99317.78;3173843;27;20443;-73
2023/06/28 05:24:21;;;;;;;12.70;4.93;;;;;;;23.56;56.82;99333.75;3179431;27;20150;-73
2023/06/28 05:25:53;;;;;;;11.73;5.53;;;;;;;23.59;56.76;99323.59;3179123;27;20051;-72
2023/06/28 05:27:24;;;;;;;8.05;4.53;;;;;;;23.63;56.44;99316.13;3179283;27;20142;-72
2023/06/28 05:28:58;;;;;;;9.07;5.15;;;;;;;23.71;56.23;99321.47;3179114;27;20085;-72
2023/06/28 05:30:30;;;;;;;9.75;5.20;;;;;;;23.74;56.39;99315.84;3179196;27;20516;-70
2023/06/28 05:32:02;;;;;;;14.75;5.28;;;;;;;23.81;56.22;99323.97;3177929;27;20047;-71
2023/06/28 05:33:34;;;;;;;12.73;6.45;;;;;;;23.87;55.96;99315.34;3176794;27;20061;-71
2023/06/28 05:35:07;;;;;;;9.73;4.88;;;;;;;23.94;55.86;99320.84;3179234;27;20137;-70
2023/06/28 05:36:39;;;;;;;12.32;5.88;;;;;;;23.96;55.22;99322.34;3175189;27;20083;-73
2023/06/28 05:38:11;;;;;;;9.32;5.45;;;;;;;24.03;54.84;99311.84;3175147;27;20869;-70
2023/06/28 05:39:44;;;;;;;10.43;5.22;;;;;;;24.09;54.77;99313.84;3173982;27;20054;-72
2023/06/28 05:41:17;;;;;;;14.00;5.22;;;;;;;24.16;54.66;99314.00;3173753;27;20051;-71
2023/06/28 05:42:48;;;;;;;10.23;5.00;;;;;;;24.24;54.24;99319.31;3179139;27;20543;-75
2023/06/28 05:44:21;;;;;;;11.85;5.50;;;;;;;24.35;54.39;99315.47;3172438;27;20050;-72
2023/06/28 05:45:54;;;;;;;;;;;;;;;24.29;54.56;99312.47;3175023;27;20058;-73
2023/06/28 05:47:26;;;;;;;7.15;4.82;;;;;;;24.43;54.34;99312.78;3175997;27;20049;-69
2023/06/28 05:49:00;;;;;;;13.82;5.45;;;;;;;24.55;53.69;99314.13;3180092;27;20516;-70
2023/06/28 05:50:32;;;;;;;10.13;5.32;;;;;;;24.65;53.76;99313.91;3171779;27;20077;-74
2023/06/28 05:52:05;;;;;;;12.15;5.28;;;;;;;24.73;53.16;99314.72;3166286;28;20639;-72
2023/06/28 05:53:38;;;;;;;12.10;4.65;;;;;;;24.81;52.80;99313.84;3176843;27;20066;-73
2023/06/28 05:55:10;;;;;;;7.93;5.35;;;;;;;24.88;52.21;99314.81;3179146;27;20058;-72
2023/06/28 05:56:42;;;;;;;7.47;4.97;;;;;;;24.96;52.21;99316.59;3178714;27;20051;-74
2023/06/28 05:58:14;;;;;;;11.65;4.97;;;;;;;25.05;51.26;99315.56;3178349;27;20057;-73
2023/06/28 05:59:47;;;;;;;13.57;4.88;;;;;;;25.12;51.17;99307.72;3178721;27;20051;-72
2023/06/28 06:01:19;;;;;;;9.07;5.20;;;;;;;25.21;51.08;99309.34;3170532;27;20055;-73
2023/06/28 06:02:51;;;;;;;6.70;4.13;;;;;;;25.30;50.84;99307.47;3178940;27;20095;-74
2023/06/28 06:04:23;;;;;;;7.03;3.95;;;;;;;25.40;50.28;99302.72;3173752;27;20104;-74
2023/06/28 06:05:55;;;;;;;8.77;4.80;;;;;;;25.46;49.96;99301.19;3178860;27;20332;-72
2023/06/28 06:07:27;;;;;;;5.28;4.20;;;;;;;25.55;50.15;99295.63;3171054;27;20123;-75
2023/06/28 06:08:59;;;;;;;8.20;4.88;;;;;;;25.61;49.89;99292.25;3178982;27;20100;-72
2023/06/28 06:10:32;;;;;;;10.55;4.82;;;;;;;25.69;49.43;99290.53;3179809;27;20056;-73
2023/06/28 06:12:04;;;;;;;7.20;4.03;;;;;;;25.75;48.97;99289.81;3178528;27;20058;-73
2023/06/28 06:13:36;;;;;;;7.63;4.25;;;;;;;25.81;48.95;99289.09;3178661;27;20063;-72
2023/06/28 06:15:11;;;;;;;10.90;4.50;;;;;;;25.87;48.65;99291.91;3178792;27;20527;-73
2023/06/28 06:16:42;;;;;;;9.15;4.60;;;;;;;25.95;48.64;99285.66;3177844;27;20051;-73
2023/06/28 06:18:14;;;;;;;9.77;4.57;;;;;;;25.94;48.26;99284.03;3178865;27;20088;-73
2023/06/28 06:19:45;;;;;;;12.20;4.40;;;;;;;25.99;48.08;99281.63;3178564;27;20159;-76
2023/06/28 06:21:17;;;;;;;9.55;4.78;;;;;;;26.02;47.80;99281.25;3177290;27;20051;-72
2023/06/28 06:22:50;;;;;;;9.30;5.28;;;;;;;26.07;47.93;99281.56;3177162;27;20055;-75
2023/06/28 06:24:22;;;;;;;7.43;5.32;;;;;;;26.10;47.80;99283.84;3178524;27;20882;-76
2023/06/28 06:25:54;;;;;;;13.77;4.93;;;;;;;26.18;47.85;99282.13;3178643;27;20062;-76
2023/06/28 06:27:26;;;;;;;9.38;5.13;;;;;;;26.24;47.27;99286.72;3178251;27;20576;-73
2023/06/28 06:28:59;;;;;;;7.35;4.75;;;;;;;26.30;47.32;99291.34;3168873;27;20055;-73
2023/06/28 06:30:32;;;;;;;8.00;5.20;;;;;;;26.33;47.03;99286.47;3176019;27;20039;-74
2023/06/28 06:32:05;;;;;;;6.80;5.43;;;;;;;26.32;46.85;99279.47;3178692;27;20146;-74
2023/06/28 06:33:37;;;;;;;5.38;4.72;;;;;;;26.36;46.60;99285.28;3172573;27;20467;-76
2023/06/28 06:35:09;;;;;;;10.05;5.68;;;;;;;26.40;46.68;99291.88;3176136;27;20055;-72
2023/06/28 06:36:41;;;;;;;12.55;5.57;;;;;;;26.44;46.55;99295.00;3173197;27;20058;-76
2023/06/28 06:38:13;;;;;;;10.60;5.68;;;;;;;26.50;46.40;99294.31;3174709;27;20574;-75
2023/06/28 06:39:45;;;;;;;10.68;4.95;;;;;;;26.58;45.97;99290.72;3177525;27;20055;-73
2023/06/28 06:41:17;;;;;;;10.35;5.25;;;;;;;26.65;46.01;99291.63;3173583;27;20047;-77
2023/06/28 06:42:49;;;;;;;7.55;5.30;;;;;;;26.72;45.87;99293.38;3178418;27;20051;-69
2023/06/28 06:44:21;;;;;;;10.68;5.35;;;;;;;26.79;45.82;99288.13;3178456;27;20051;-77
2023/06/28 06:45:56;;;;;;;11.95;5.05;;;;;;;26.88;46.00;99287.00;3173102;27;20055;-77
2023/06/28 06:47:27;;;;;;;7.20;5.22;;;;;;;26.92;45.60;99295.47;3168598;27;20051;-75
2023/06/28 06:48:59;;;;;;;8.13;5.82;;;;;;;26.97;45.37;99285.88;3168566;27;20066;-70
2023/06/28 06:50:31;;;;;;;9.20;5.00;;;;;;;27.05;45.48;99286.78;3167031;27;20860;-71
2023/06/28 06:52:04;;;;;;;10.57;5.65;;;;;;;27.10;45.15;99292.41;3167691;27;20051;-72
2023/06/28 06:53:36;;;;;;;7.38;5.72;;;;;;;27.15;45.11;99285.50;3178232;27;20054;-72
2023/06/28 06:55:08;;;;;;;8.80;5.18;;;;;;;27.27;44.98;99290.34;3177952;27;20047;-73
2023/06/28 06:56:40;;;;;;;13.97;6.57;;;;;;;27.33;44.75;99287.75;3174325;27;20063;-76
2023/06/28 06:58:12;;;;;;;9.02;4.60;;;;;;;27.41;44.50;99281.44;3177686;27;20047;-76
2023/06/28 06:59:44;;;;;;;10.52;5.05;;;;;;;27.43;44.29;99287.44;3177240;27;20500;-75
2023/06/28 07:01:18;;;;;;;7.18;5.35;;;;;;;27.45;44.48;99278.19;3173417;27;20058;-74
2023/06/28 07:02:50;;;;;;;8.48;4.93;;;;;;;27.52;44.17;99277.44;3177532;27;20501;-73
2023/06/28 07:04:22;;;;;;;15.90;5.30;;;;;;;27.53;44.30;99268.38;3177653;27;20065;-73
2023/06/28 07:05:54;;;;;;;11.20;5.63;;;;;;;27.56;44.68;99258.13;3178143;27;20146;-74
2023/06/28 07:07:26;;;;;;;11.30;5.35;;;;;;;27.65;44.35;99264.16;3169639;27;20047;-73
2023/06/28 07:08:59;;;;;;;9.82;5.70;;;;;;;27.68;44.25;99267.28;3178224;27;20484;-73
2023/06/28 07:10:31;;;;;;;8.52;6.18;;;;;;;27.71;44.47;99266.06;3176953;27;20043;-72
2023/06/28 07:12:03;;;;;;;8.63;5.50;;;;;;;27.78;44.50;99250.94;3177616;27;20446;-72
2023/06/28 07:13:35;;;;;;;9.30;5.50;;;;;;;27.83;44.05;99261.91;3178060;27;20051;-73
2023/06/28 07:15:09;;;;;;;9.05;5.80;;;;;;;27.92;44.20;99253.72;3178036;27;20051;-72
2023/06/28 07:16:44;;;;;;;9.65;6.15;;;;;;;28.01;43.98;99255.22;3176518;27;20452;-76
2023/06/28 07:18:17;;;;;;;12.77;5.85;;;;;;;28.07;43.79;99252.59;3178244;27;20062;-76
2023/06/28 07:19:49;;;;;;;9.55;6.22;;;;;;;28.13;43.77;99253.69;3152848;28;20667;-74
2023/06/28 07:21:22;;;;;;;8.13;5.88;;;;;;;28.20;43.92;99249.19;3174904;27;20074;-73
2023/06/28 07:22:54;;;;;;;11.50;5.87;;;;;;;28.28;43.66;99241.00;3176936;27;20097;-74
2023/06/28 07:24:27;;;;;;;8.38;5.70;;;;;;;28.34;43.64;99252.78;3174640;27;20321;-76
2023/06/28 07:25:58;;;;;;;11.68;6.88;;;;;;;28.41;43.56;99247.44;3175536;27;20071;-78
2023/06/28 07:27:31;;;;;;;12.27;6.47;;;;;;;28.47;43.23;99242.13;3177642;27;20070;-77
2023/06/28 07:29:03;;;;;;;8.63;5.55;;;;;;;28.51;43.03;99245.25;3177857;27;20058;-80
2023/06/28 07:30:54;;;;;;;9.18;5.63;;;;;;;28.53;43.20;99243.19;3173330;27;20425;-74
2023/06/28 07:32:29;;;;;;;6.97;5.60;;;;;;;28.61;42.97;99244.91;3177965;27;20497;-75
2023/06/28 07:34:04;;;;;;;7.60;5.50;;;;;;;28.68;42.71;99243.06;3168984;27;20568;-74
2023/06/28 07:35:36;;;;;;;9.50;5.80;;;;;;;28.73;42.51;99246.78;3177326;27;20400;-79
2023/06/28 07:37:08;;;;;;;8.80;5.93;;;;;;;28.75;42.42;99238.53;3177331;27;20558;-73
2023/06/28 07:38:40;;;;;;;9.20;5.47;;;;;;;28.74;42.49;99240.41;3174882;27;20062;-72
2023/06/28 07:40:16;;;;;;;8.75;6.28;;;;;;;28.85;41.89;99244.38;3172055;27;20555;-73
2023/06/28 07:41:48;;;;;;;11.35;5.53;;;;;;;28.92;41.79;99239.00;3177421;27;20093;-73
2023/06/28 07:43:20;;;;;;;8.18;5.68;;;;;;;29.00;41.40;99245.03;3176871;27;20412;-71
2023/06/28 07:44:52;;;;;;;9.82;5.60;;;;;;;29.00;41.19;99231.63;3177502;27;20050;-71
2023/06/28 07:46:25;;;;;;;7.55;5.50;;;;;;;29.11;41.09;99240.97;3177096;27;20450;-72
2023/06/28 07:47:58;;;;;;;7.85;5.65;;;;;;;29.17;40.80;99231.28;3171359;27;20054;-73
2023/06/28 07:49:30;;;;;;;7.50;4.85;;;;;;;29.20;40.06;99242.44;3176371;27;20520;-73
2023/06/28 07:51:04;;;;;;;8.60;5.30;;;;;;;29.18;39.70;99236.44;3169804;27;20154;-73
2023/06/28 07:52:36;;;;;;;9.35;5.38;;;;;;;29.23;39.97;99247.38;3168680;27;20578;-73
2023/06/28 07:54:08;;;;;;;9.80;5.95;;;;;;;29.32;39.80;99244.50;3177305;27;20107;-72
2023/06/28 07:55:39;;;;;;;9.13;5.00;;;;;;;29.41;39.88;99240.59;3177099;27;20230;-72
2023/06/28 07:57:12;;;;;;;12.27;5.13;;;;;;;29.51;39.71;99238.31;3168323;27;20120;-81
2023/06/28 07:58:43;;;;;;;7.97;5.72;;;;;;;29.61;40.10;99235.22;3177037;27;20567;-80
2023/06/28 08:00:16;;;;;;;11.15;5.95;;;;;;;29.73;39.69;99233.63;3177013;27;20050;-75
2023/06/28 08:01:49;;;;;;;9.15;5.15;;;;;;;29.82;39.66;99232.38;3177008;27;20146;-78
2023/06/28 08:03:23;;;;;;;6.25;4.97;;;;;;;29.95;39.40;99230.72;3177580;27;20101;-80
2023/06/28 08:04:55;;;;;;;11.75;5.60;;;;;;;30.06;39.39;99225.53;3167880;27;20537;-80
2023/06/28 08:06:28;;;;;;;9.55;5.55;;;;;;;30.16;39.08;99233.13;3172423;27;20055;-76
2023/06/28 08:08:00;;;;;;;;;;;;;;;30.11;38.92;99231.09;3176090;27;20054;-74
2023/06/28 08:09:32;;;;;;;11.93;5.53;;;;;;;30.22;38.82;99229.63;3177552;27;20003;-74